createdAt,value
2023-05-05T03:11:52.053Z,177.60
2023-05-05T03:15:55.820Z,176.45
2023-05-05T03:19:59.222Z,178.30
2023-05-05T03:24:13.384Z,177.95
2023-05-05T03:32:21.068Z,178.00
2023-05-05T03:36:24.044Z,178.90
2023-05-05T03:40:36.204Z,179.20
2023-05-05T03:44:45.090Z,177.23
2023-05-05T03:48:48.525Z,176.80
2023-05-05T03:52:51.548Z,179.35
2023-05-05T03:56:54.824Z,175.70
2023-05-05T04:00:59.202Z,177.90
2023-05-05T04:05:02.407Z,178.10
2023-05-05T04:09:05.769Z,177.60
2023-05-05T04:13:11.000Z,177.60
2023-05-05T04:17:15.509Z,177.80
2023-05-05T04:21:18.527Z,177.23
2023-05-05T04:25:21.675Z,176.90
2023-05-05T04:29:25.190Z,175.35
2023-05-05T04:33:30.841Z,176.60
2023-05-05T04:37:33.991Z,178.10
2023-05-05T04:41:37.132Z,176.90
2023-05-05T04:45:40.309Z,178.40
2023-05-05T04:49:46.888Z,176.40
2023-05-05T04:53:49.895Z,177.75
2023-05-05T04:57:53.021Z,177.03
2023-05-05T05:01:56.086Z,176.63
2023-05-05T05:06:02.561Z,178.00
2023-05-05T05:10:06.379Z,178.23
2023-05-05T05:14:09.438Z,175.30
2023-05-05T05:18:12.499Z,177.60
2023-05-05T05:22:16.858Z,176.83
2023-05-05T05:26:19.921Z,176.90
2023-05-05T05:30:23.020Z,177.30
2023-05-05T05:34:26.062Z,176.83
2023-05-05T05:38:31.440Z,177.75
2023-05-05T05:42:34.502Z,176.50
2023-05-05T05:46:37.891Z,174.50
2023-05-05T05:50:40.918Z,176.63
2023-05-05T05:54:45.282Z,176.80
2023-05-05T05:58:48.783Z,174.00
2023-05-05T06:02:52.398Z,176.10
2023-05-05T06:06:55.389Z,176.65
2023-05-05T06:11:00.658Z,176.50
2023-05-05T06:15:05.007Z,175.73
2023-05-05T06:19:09.754Z,176.17
2023-05-05T06:23:12.778Z,175.90
2023-05-05T06:27:17.127Z,175.77
2023-05-05T06:31:20.126Z,174.75
2023-05-05T06:35:23.191Z,173.00
2023-05-05T06:39:26.489Z,174.00
2023-05-05T06:43:31.240Z,167.80
2023-05-05T06:47:34.250Z,170.90
2023-05-05T06:51:37.410Z,169.80
2023-05-05T06:55:44.105Z,170.95
2023-05-05T06:59:48.469Z,170.95
2023-05-05T07:03:52.369Z,171.10
2023-05-05T07:07:56.269Z,164.80
2023-05-05T07:11:59.261Z,164.35
2023-05-05T07:16:03.842Z,167.10
2023-05-05T07:20:08.152Z,168.45
2023-05-05T07:24:11.257Z,172.30
2023-05-05T07:28:14.329Z,169.13
2023-05-05T07:32:18.738Z,170.77
2023-05-05T07:36:22.321Z,171.30
2023-05-05T07:40:26.001Z,169.47
2023-05-05T07:44:29.197Z,172.90
2023-05-05T07:48:33.579Z,172.80
2023-05-05T07:52:46.480Z,170.75
2023-05-05T07:56:54.634Z,167.90
2023-05-05T08:00:57.633Z,171.40
2023-05-05T08:05:01.961Z,171.03
2023-05-05T08:09:05.324Z,168.85
2023-05-05T08:13:08.499Z,169.07
2023-05-05T08:17:12.169Z,168.30
2023-05-05T08:21:16.790Z,167.70
2023-05-05T08:25:19.830Z,168.60
2023-05-05T08:29:22.801Z,166.20
2023-05-05T08:33:25.895Z,168.20
2023-05-05T08:37:30.477Z,169.77
2023-05-05T08:41:34.643Z,167.57
2023-05-05T08:45:47.598Z,172.40
2023-05-05T08:49:52.781Z,174.43
2023-05-05T08:54:05.342Z,176.30
2023-05-05T08:58:09.582Z,176.93
2023-05-05T09:02:14.541Z,177.60
2023-05-05T09:06:17.560Z,177.48
2023-05-05T09:10:22.126Z,177.93
2023-05-05T09:14:25.138Z,173.18
2023-05-05T09:18:28.236Z,172.97
2023-05-05T09:22:36.108Z,174.95
2023-05-05T09:26:43.813Z,175.30
2023-05-05T09:30:48.204Z,174.35
2023-05-05T09:34:59.067Z,173.20
2023-05-05T09:39:06.312Z,173.23
2023-05-05T09:43:11.091Z,170.23
2023-05-05T09:47:25.901Z,169.00
2023-05-05T09:51:32.058Z,169.10
2023-05-05T09:55:36.094Z,165.77
2023-05-05T09:59:40.672Z,167.20
2023-05-05T10:03:51.438Z,165.13
2023-05-05T10:07:54.409Z,168.53
2023-05-05T10:11:59.079Z,166.10
2023-05-05T10:16:05.742Z,165.90
2023-05-05T10:20:11.380Z,164.00
2023-05-05T10:24:19.366Z,162.57
2023-05-05T10:28:29.577Z,168.75
2023-05-05T10:36:46.181Z,168.15
2023-05-05T10:40:49.655Z,170.95
2023-05-05T10:44:53.514Z,171.60
2023-05-05T10:49:05.970Z,170.00
2023-05-05T10:53:17.191Z,170.00
2023-05-05T10:57:24.907Z,169.70
2023-05-05T11:01:33.704Z,170.07
2023-05-05T11:05:58.295Z,167.70
2023-05-05T11:10:02.593Z,170.70
2023-05-05T11:14:22.483Z,171.05
2023-05-05T12:20:16.399Z,185.55
2023-05-05T12:24:19.989Z,188.65
2023-05-05T12:28:23.159Z,184.40
2023-05-05T12:32:28.930Z,182.60
2023-05-05T12:36:33.017Z,183.57
2023-05-05T12:40:47.094Z,182.77
2023-05-05T12:44:50.735Z,187.20
2023-05-05T12:49:07.313Z,186.40
2023-05-05T12:53:10.345Z,186.70
2023-05-05T12:57:13.385Z,187.83
2023-05-05T13:01:17.498Z,188.55
2023-05-05T13:05:32.753Z,190.60
2023-05-05T13:09:35.809Z,189.60
2023-05-05T13:13:38.865Z,190.70
2023-05-05T13:17:43.051Z,190.63
2023-05-05T13:21:47.542Z,190.85
2023-05-05T13:25:51.075Z,190.70
2023-05-05T13:29:54.074Z,189.97
2023-05-05T13:33:59.315Z,188.97
2023-05-05T13:38:03.976Z,190.00
2023-05-05T13:42:07.087Z,188.40
2023-05-05T13:46:19.724Z,185.00
2023-05-05T13:50:23.962Z,188.27
2023-05-05T13:54:28.342Z,187.20
2023-05-05T13:58:31.335Z,187.55
2023-05-05T14:02:34.376Z,185.63
2023-05-05T14:06:37.411Z,188.03
2023-05-05T14:10:43.822Z,185.27
2023-05-05T14:14:49.402Z,187.73
2023-05-05T14:18:52.425Z,187.30
2023-05-05T14:22:56.513Z,187.45
2023-05-05T14:27:02.324Z,186.80
2023-05-05T14:31:05.564Z,186.83
2023-05-05T14:35:09.143Z,185.40
2023-05-05T14:39:12.260Z,185.60
2023-05-05T14:43:16.717Z,186.47
2023-05-05T14:47:19.985Z,185.10
2023-05-05T14:51:23.013Z,186.03
2023-05-05T14:55:26.470Z,186.52
2023-05-05T15:03:33.984Z,187.82
2023-05-05T15:07:37.147Z,186.27
2023-05-05T15:11:41.270Z,182.07
2023-05-05T15:15:46.196Z,181.32
2023-05-05T15:23:52.026Z,185.00
2023-05-05T15:27:55.026Z,183.38
2023-05-05T15:31:59.406Z,181.30
2023-05-05T15:36:02.408Z,182.38
2023-05-05T15:40:06.471Z,180.30
2023-05-05T15:44:12.332Z,178.33
2023-05-05T15:48:16.643Z,181.10
2023-05-05T15:52:19.701Z,179.65
2023-05-05T15:56:22.715Z,179.40
2023-05-05T16:00:25.903Z,179.80
2023-05-05T16:04:30.425Z,180.07
2023-05-05T16:08:33.421Z,180.80
2023-05-05T16:12:36.482Z,178.35
2023-05-05T16:16:39.520Z,178.77
2023-05-05T16:20:43.854Z,179.15
2023-05-05T16:24:46.999Z,179.10
2023-05-05T16:28:49.948Z,177.00
2023-05-05T16:32:54.526Z,177.47
2023-05-05T16:37:00.158Z,174.50
2023-05-05T16:41:03.214Z,178.03
2023-05-05T16:45:08.906Z,177.70
2023-05-05T16:49:12.109Z,177.60
2023-05-05T16:53:16.470Z,178.10
2023-05-05T17:01:36.175Z,177.10
2023-05-05T17:05:39.348Z,177.50
2023-05-05T17:09:43.702Z,176.37
2023-05-05T17:13:46.677Z,177.45
2023-05-05T17:17:49.751Z,177.37
2023-05-05T17:21:52.766Z,174.13
2023-05-05T17:25:58.762Z,177.10
2023-05-05T17:30:01.756Z,196.03
2023-05-05T17:34:04.771Z,189.15
2023-05-05T17:38:07.867Z,188.25
2023-05-05T17:42:12.339Z,186.00
2023-05-05T17:46:15.380Z,184.05
2023-05-05T17:50:18.547Z,182.25
2023-05-05T17:54:21.538Z,181.90
2023-05-05T17:58:26.113Z,182.18
2023-05-05T18:02:29.241Z,181.60
2023-05-05T18:06:32.276Z,180.55
2023-05-05T18:10:35.286Z,179.10
2023-05-05T18:14:39.779Z,180.00
2023-05-05T18:18:43.448Z,178.80
2023-05-05T18:22:46.694Z,182.85
2023-05-05T18:26:51.173Z,182.35
2023-05-05T18:30:55.763Z,182.07
2023-05-05T18:34:59.750Z,182.47
2023-05-05T18:39:02.805Z,181.55
2023-05-05T18:43:05.812Z,182.00
2023-05-05T18:47:10.322Z,182.10
2023-05-05T18:51:13.362Z,182.10
2023-05-05T18:55:18.439Z,182.63
2023-05-05T18:59:21.796Z,181.97
2023-05-05T19:03:26.198Z,183.30
2023-05-05T19:07:35.576Z,183.30
2023-05-05T19:11:41.817Z,183.10
2023-05-05T19:15:44.901Z,184.00
2023-05-05T19:19:49.275Z,180.50
2023-05-05T19:23:52.272Z,179.20
2023-05-05T19:27:55.326Z,181.55
2023-05-05T19:31:58.398Z,183.00
2023-05-05T19:36:03.545Z,181.10
2023-05-05T19:40:08.312Z,182.20
2023-05-05T19:44:11.711Z,183.47
2023-05-05T19:48:16.826Z,182.70
2023-05-05T19:52:23.595Z,183.50
2023-05-05T19:56:26.606Z,181.70
2023-05-05T20:00:29.852Z,182.70
2023-05-05T20:04:32.831Z,181.40
2023-05-05T20:08:37.171Z,182.30
2023-05-05T20:12:42.424Z,181.55
2023-05-05T20:16:47.978Z,183.05
2023-05-05T20:20:51.299Z,183.70
2023-05-05T20:24:55.868Z,182.60
2023-05-05T20:28:59.233Z,183.55
2023-05-05T20:33:02.234Z,183.40
2023-05-05T20:37:05.381Z,182.50
2023-05-05T20:41:09.718Z,182.43
2023-05-05T20:45:13.504Z,181.75
2023-05-05T20:49:16.550Z,181.85
2023-05-05T20:53:20.983Z,182.90
2023-05-05T20:57:26.031Z,182.50
2023-05-05T21:01:29.506Z,182.95
2023-05-05T21:05:32.663Z,181.90
2023-05-05T21:13:41.046Z,184.70
2023-05-05T21:33:56.751Z,184.70
2023-05-05T21:37:59.744Z,185.00
2023-05-05T21:42:02.723Z,184.25
2023-05-05T21:46:07.207Z,183.90
2023-05-05T21:50:11.421Z,184.25
2023-05-05T21:54:14.677Z,183.60
2023-05-05T21:58:17.674Z,185.00
2023-05-05T22:06:24.999Z,184.60
2023-05-05T22:10:28.183Z,182.30
2023-05-05T22:14:31.256Z,185.65
2023-05-05T22:18:36.498Z,185.07
2023-05-05T22:22:39.496Z,184.93
